Time;durP1;ratioP1;P1;durP2;ratioP2;P2;SDS_P1;SDS_P2;PMS_P1;PMS_P2;Temp;Humidity;BMP_temperature;BMP_pressure;BME280_temperature;BME280_humidity;BME280_pressure;Samples;Min_cycle;Max_cycle;Signal;HPM_P1;HPM_P2
2021/03/11 00:01:26;;;;;;;4.78;2.72;;;17.70;48.60;;;;;;5042807;28;20087;-66
2021/03/11 00:03:51;;;;;;;4.85;3.35;;;17.70;48.50;;;;;;5041557;28;20104;-66
2021/03/11 00:06:17;;;;;;;5.20;3.10;;;17.70;48.40;;;;;;5043455;28;20091;-66
2021/03/11 00:08:42;;;;;;;6.68;2.70;;;17.70;48.40;;;;;;5044567;28;20036;-65
2021/03/11 00:11:08;;;;;;;5.13;2.53;;;17.70;48.30;;;;;;5044294;28;20488;-66
2021/03/11 00:13:33;;;;;;;5.97;3.05;;;17.80;48.30;;;;;;5044628;28;20037;-67
2021/03/11 00:15:59;;;;;;;4.05;2.97;;;17.80;48.20;;;;;;5042331;28;20037;-65
2021/03/11 00:18:25;;;;;;;4.32;2.55;;;17.80;48.20;;;;;;5044924;28;20024;-66
2021/03/11 00:20:50;;;;;;;6.07;3.38;;;17.70;48.10;;;;;;5042776;28;20053;-66
2021/03/11 00:23:16;;;;;;;3.83;2.85;;;17.70;48.10;;;;;;5042887;28;20505;-67
2021/03/11 00:25:41;;;;;;;4.20;3.20;;;17.70;48.00;;;;;;5045851;28;20031;-66
2021/03/11 00:28:07;;;;;;;4.70;3.17;;;17.70;48.00;;;;;;5043733;28;20021;-65
2021/03/11 00:30:32;;;;;;;4.28;3.17;;;17.70;48.00;;;;;;5043888;28;20032;-65
2021/03/11 00:32:59;;;;;;;6.82;3.38;;;17.70;48.10;;;;;;5044261;28;20040;-66
2021/03/11 00:35:24;;;;;;;3.33;2.58;;;17.60;48.20;;;;;;5025815;28;20028;-65
2021/03/11 00:37:50;;;;;;;3.80;2.70;;;17.60;48.40;;;;;;5043474;28;20025;-66
2021/03/11 00:40:17;;;;;;;5.70;3.00;;;17.60;48.50;;;;;;5042779;28;20481;-66
2021/03/11 00:42:43;;;;;;;6.53;3.00;;;17.50;48.60;;;;;;5044028;28;20057;-66
2021/03/11 00:45:09;;;;;;;4.43;2.90;;;17.50;49.40;;;;;;5044036;28;20052;-67
2021/03/11 00:47:35;;;;;;;3.00;2.33;;;17.50;48.90;;;;;;5042238;28;20037;-66
2021/03/11 00:50:01;;;;;;;3.88;2.90;;;17.40;48.90;;;;;;5042851;28;20029;-66
2021/03/11 00:52:26;;;;;;;4.03;2.67;;;17.50;48.90;;;;;;5044152;28;20067;-65
2021/03/11 00:54:52;;;;;;;4.38;2.78;;;17.50;48.70;;;;;;5042386;28;20071;-66
2021/03/11 00:57:17;;;;;;;4.68;2.65;;;17.70;48.50;;;;;;5043497;28;20049;-65
2021/03/11 00:59:43;;;;;;;3.58;2.65;;;17.70;48.10;;;;;;5043763;28;20495;-64
2021/03/11 01:02:08;;;;;;;3.80;2.40;;;17.80;48.10;;;;;;5043907;28;20032;-66
2021/03/11 01:04:34;;;;;;;2.58;2.33;;;17.80;48.00;;;;;;5044384;28;20487;-66
2021/03/11 01:06:59;;;;;;;5.82;2.85;;;17.90;48.00;;;;;;5043748;28;20090;-67
2021/03/11 01:09:25;;;;;;;2.92;2.63;;;17.90;47.90;;;;;;5045124;28;20033;-66
2021/03/11 01:11:50;;;;;;;4.30;2.40;;;17.90;47.70;;;;;;5044918;28;20025;-66
2021/03/11 01:14:16;;;;;;;2.55;2.35;;;17.90;47.70;;;;;;5043451;28;20025;-66
2021/03/11 01:16:50;;;;;;;3.20;2.38;;;18.00;47.60;;;;;;5042384;28;20399;-65
2021/03/11 01:19:15;;;;;;;3.72;2.35;;;18.00;47.50;;;;;;5047353;28;20055;-66
2021/03/11 01:21:41;;;;;;;3.33;2.38;;;18.00;47.50;;;;;;5046024;28;20032;-66
2021/03/11 01:24:07;;;;;;;4.45;2.35;;;18.10;47.50;;;;;;5044642;28;20029;-65
2021/03/11 01:26:32;;;;;;;2.50;2.30;;;18.00;47.40;;;;;;5043177;28;20033;-66
2021/03/11 01:28:59;;;;;;;2.45;2.25;;;18.10;47.50;;;;;;5044438;28;20036;-66
2021/03/11 01:31:25;;;;;;;3.85;2.15;;;18.10;47.50;;;;;;5043941;28;20381;-66
2021/03/11 01:33:50;;;;;;;2.55;2.22;;;18.10;47.40;;;;;;5042402;28;20036;-66
2021/03/11 01:36:16;;;;;;;2.85;2.17;;;18.10;47.40;;;;;;5043678;28;20108;-66
2021/03/11 01:38:41;;;;;;;2.45;2.00;;;18.10;47.40;;;;;;5044721;28;20033;-65
2021/03/11 01:41:07;;;;;;;3.78;2.60;;;18.00;47.20;;;;;;5043483;28;20025;-65
2021/03/11 01:43:32;;;;;;;2.97;2.38;;;18.10;47.20;;;;;;5043790;28;20499;-67
2021/03/11 01:45:58;;;;;;;2.35;2.03;;;18.10;47.30;;;;;;5043743;28;20033;-66
2021/03/11 01:48:23;;;;;;;2.95;2.13;;;18.00;47.20;;;;;;5043056;28;20021;-65
2021/03/11 01:50:49;;;;;;;3.22;2.22;;;18.00;47.30;;;;;;5043637;28;20407;-65
2021/03/11 01:53:14;;;;;;;3.72;2.40;;;18.00;47.30;;;;;;5047238;28;20040;-66
2021/03/11 01:55:40;;;;;;;3.75;2.33;;;18.00;47.30;;;;;;5045389;28;20051;-65
2021/03/11 01:58:05;;;;;;;2.95;2.00;;;18.00;47.40;;;;;;5046443;28;20074;-66
2021/03/11 02:00:31;;;;;;;2.90;2.58;;;17.90;47.30;;;;;;5046210;28;20555;-66
2021/03/11 02:02:56;;;;;;;3.10;2.35;;;18.00;47.40;;;;;;5047508;28;20056;-66
2021/03/11 02:05:22;;;;;;;2.97;2.50;;;17.90;47.40;;;;;;5028783;28;20385;-66
2021/03/11 02:07:48;;;;;;;2.50;2.22;;;18.00;47.40;;;;;;5045060;28;20444;-66
2021/03/11 02:10:17;;;;;;;2.78;2.40;;;18.00;47.40;;;;;;5046287;28;20036;-66
2021/03/11 02:13:00;;;;;;;2.67;2.33;;;18.00;47.40;;;;;;5045119;28;20029;-65
2021/03/11 02:16:06;;;;;;;3.30;2.47;;;17.90;47.40;;;;;;5046198;28;20106;-66
2021/03/11 02:18:47;;;;;;;2.63;2.20;;;17.90;47.40;;;;;;5044836;28;20025;-67
2021/03/11 02:21:20;;;;;;;3.35;2.08;;;17.90;47.40;;;;;;5030066;28;20428;-66
2021/03/11 02:24:13;;;;;;;2.65;2.13;;;17.90;47.40;;;;;;5028627;28;20556;-65
2021/03/11 02:27:00;;;;;;;2.38;2.15;;;17.90;47.50;;;;;;5044465;28;20025;-66
2021/03/11 02:29:30;;;;;;;3.28;2.08;;;17.80;47.70;;;;;;5044159;28;20065;-65
2021/03/11 02:31:57;;;;;;;3.00;1.77;;;17.80;47.70;;;;;;5027253;28;20022;-67
2021/03/11 02:34:25;;;;;;;2.50;2.30;;;17.70;47.70;;;;;;5026217;28;20850;-65
2021/03/11 02:36:52;;;;;;;3.33;2.20;;;17.70;47.80;;;;;;5024742;28;20515;-66
2021/03/11 02:39:18;;;;;;;3.60;2.75;;;17.70;47.80;;;;;;5024801;28;20030;-66
2021/03/11 02:41:44;;;;;;;2.92;2.63;;;17.70;47.90;;;;;;5024508;28;20037;-65
2021/03/11 02:44:10;;;;;;;3.15;2.53;;;17.70;47.90;;;;;;5025075;28;20037;-66
2021/03/11 02:46:36;;;;;;;2.10;1.83;;;17.70;47.90;;;;;;5024488;28;20543;-66
2021/03/11 02:49:02;;;;;;;3.38;2.20;;;17.60;48.00;;;;;;5024810;28;20036;-66
2021/03/11 02:51:27;;;;;;;2.53;2.22;;;17.60;48.00;;;;;;5026012;28;20034;-65
2021/03/11 02:53:53;;;;;;;3.90;2.50;;;17.60;48.10;;;;;;5026102;28;20039;-66
2021/03/11 02:56:18;;;;;;;2.63;2.17;;;17.60;48.10;;;;;;5024456;28;20025;-66
2021/03/11 02:58:44;;;;;;;3.20;2.30;;;17.60;48.20;;;;;;5024657;28;20120;-66
2021/03/11 03:01:10;;;;;;;4.25;2.40;;;17.60;48.30;;;;;;5024312;28;20069;-66
2021/03/11 03:03:35;;;;;;;2.38;2.17;;;17.60;48.30;;;;;;5006751;28;20045;-65
2021/03/11 03:06:01;;;;;;;2.58;2.00;;;17.60;48.30;;;;;;5024568;28;20033;-66
2021/03/11 03:08:26;;;;;;;2.50;2.30;;;17.60;48.20;;;;;;5007328;28;21570;-66
2021/03/11 03:10:52;;;;;;;3.03;2.50;;;17.60;48.20;;;;;;5024018;28;20042;-65
2021/03/11 03:13:18;;;;;;;3.50;2.10;;;17.60;48.10;;;;;;5024196;28;20034;-66
2021/03/11 03:15:43;;;;;;;3.70;2.10;;;17.60;48.20;;;;;;5024231;28;20036;-66
2021/03/11 03:18:10;;;;;;;2.85;2.30;;;17.60;48.10;;;;;;5024180;28;20507;-67
2021/03/11 03:20:36;;;;;;;4.93;2.40;;;17.60;48.00;;;;;;5024009;28;20041;-67
2021/03/11 03:23:04;;;;;;;2.95;2.33;;;17.60;47.90;;;;;;5024362;28;20044;-66
2021/03/11 03:25:29;;;;;;;2.58;2.17;;;17.70;48.00;;;;;;5024225;28;20037;-66
2021/03/11 03:27:55;;;;;;;3.10;2.10;;;17.70;47.90;;;;;;5025283;28;20549;-66
2021/03/11 03:30:20;;;;;;;2.38;2.08;;;17.70;47.80;;;;;;5025017;28;20647;-65
2021/03/11 03:32:46;;;;;;;2.90;1.90;;;17.70;47.70;;;;;;5025132;28;20033;-65
2021/03/11 03:35:12;;;;;;;2.67;2.28;;;17.70;47.70;;;;;;5023832;28;20384;-66
2021/03/11 03:37:37;;;;;;;2.67;2.08;;;17.70;47.80;;;;;;5023316;28;20430;-66
2021/03/11 03:40:08;;;;;;;2.25;1.98;;;17.70;47.70;;;;;;5025413;28;20036;-66
2021/03/11 03:42:39;;;;;;;2.08;1.80;;;17.70;47.70;;;;;;5024779;28;20038;-66
2021/03/11 03:45:06;;;;;;;4.57;2.35;;;17.70;47.60;;;;;;5023750;28;20029;-65
2021/03/11 03:47:31;;;;;;;2.33;2.05;;;17.70;47.60;;;;;;5024007;28;20079;-66
2021/03/11 03:49:57;;;;;;;2.25;1.95;;;17.80;47.60;;;;;;5025697;28;20425;-66
2021/03/11 03:52:23;;;;;;;2.92;2.38;;;17.70;47.60;;;;;;5025843;28;20067;-66
2021/03/11 03:54:48;;;;;;;2.35;2.15;;;17.70;47.60;;;;;;5025415;28;20045;-65
2021/03/11 03:57:19;;;;;;;2.45;2.20;;;17.80;47.50;;;;;;5023168;28;20555;-65
2021/03/11 03:59:44;;;;;;;2.30;2.10;;;17.80;47.50;;;;;;5023448;28;20038;-66
2021/03/11 04:02:11;;;;;;;3.28;2.13;;;17.80;47.50;;;;;;5023209;28;20032;-65
2021/03/11 04:04:42;;;;;;;2.25;1.92;;;17.80;47.50;;;;;;5023771;28;20594;-66
2021/03/11 04:07:09;;;;;;;2.95;2.00;;;17.80;47.40;;;;;;5121362;23;20042;-65
2021/03/11 04:09:34;;;;;;;2.28;2.03;;;17.80;47.30;;;;;;4984277;28;20724;-67
2021/03/11 04:12:00;;;;;;;2.85;2.22;;;17.70;47.40;;;;;;5001877;28;20026;-67
2021/03/11 04:14:25;;;;;;;2.55;1.92;;;17.80;47.50;;;;;;5001824;28;20034;-67
2021/03/11 04:16:51;;;;;;;3.53;2.10;;;17.80;47.40;;;;;;4994589;28;20046;-64
2021/03/11 04:19:17;;;;;;;2.38;2.17;;;17.80;47.40;;;;;;4982494;28;20445;-64
2021/03/11 04:21:43;;;;;;;2.22;1.73;;;17.80;47.50;;;;;;4982643;28;20034;-65
2021/03/11 04:24:09;;;;;;;2.22;2.03;;;17.80;47.30;;;;;;4982839;28;20049;-65
2021/03/11 04:26:35;;;;;;;2.20;1.95;;;17.80;47.30;;;;;;4982506;28;20868;-67
2021/03/11 04:29:01;;;;;;;2.83;1.77;;;17.80;47.30;;;;;;4990475;28;20064;-65
2021/03/11 04:31:26;;;;;;;2.70;2.25;;;17.80;47.30;;;;;;4989403;28;20382;-62
2021/03/11 04:33:52;;;;;;;2.22;1.98;;;17.80;47.30;;;;;;4984335;28;20129;-66
2021/03/11 04:36:18;;;;;;;2.67;1.95;;;17.80;47.20;;;;;;4983344;28;20042;-65
2021/03/11 04:38:43;;;;;;;1.77;1.67;;;17.80;47.20;;;;;;4982115;28;20038;-66
2021/03/11 04:41:09;;;;;;;2.33;1.98;;;17.80;47.20;;;;;;4982250;28;20370;-66
2021/03/11 04:43:34;;;;;;;1.65;1.52;;;17.80;47.20;;;;;;4983823;28;20118;-63
2021/03/11 04:46:00;;;;;;;2.20;1.90;;;17.80;47.20;;;;;;4983282;28;20038;-67
2021/03/11 04:48:25;;;;;;;1.95;1.75;;;17.80;47.20;;;;;;4981767;28;20030;-67
2021/03/11 04:50:51;;;;;;;1.90;1.70;;;17.80;47.10;;;;;;4983777;28;21043;-66
2021/03/11 04:53:21;;;;;;;2.30;1.80;;;17.80;47.10;;;;;;4982171;28;20085;-65
2021/03/11 04:55:46;;;;;;;2.55;2.05;;;17.80;47.70;;;;;;4981988;28;20038;-66
2021/03/11 04:58:12;;;;;;;3.03;1.50;;;17.80;47.10;;;;;;4982267;28;20023;-65
2021/03/11 05:00:38;;;;;;;3.28;2.00;;;17.80;47.10;;;;;;4983660;28;20149;-66
2021/03/11 05:03:06;;;;;;;2.00;1.60;;;17.80;47.10;;;;;;4983802;28;20129;-67
2021/03/11 05:05:35;;;;;;;2.70;2.20;;;17.70;47.10;;;;;;4983985;28;20477;-65
2021/03/11 05:08:01;;;;;;;2.25;1.80;;;17.70;47.10;;;;;;4982804;28;20558;-66
2021/03/11 05:10:27;;;;;;;2.45;1.92;;;17.70;47.10;;;;;;4983454;28;20043;-67
2021/03/11 05:12:52;;;;;;;2.42;1.73;;;17.70;47.10;;;;;;4983853;28;20057;-65
2021/03/11 05:15:18;;;;;;;1.95;1.50;;;17.70;47.10;;;;;;4981464;28;20512;-66
2021/03/11 05:17:43;;;;;;;2.28;1.70;;;17.70;47.10;;;;;;4989832;28;20068;-66
2021/03/11 05:20:09;;;;;;;2.13;1.50;;;17.70;47.30;;;;;;5002575;28;20105;-64
2021/03/11 05:22:35;;;;;;;1.73;1.38;;;17.60;47.40;;;;;;5001676;28;20532;-62
2021/03/11 05:25:00;;;;;;;1.70;1.60;;;17.60;47.60;;;;;;5000992;28;20023;-62
2021/03/11 05:27:25;;;;;;;1.90;1.67;;;17.50;47.70;;;;;;4987536;28;20029;-62
2021/03/11 05:29:51;;;;;;;1.90;1.50;;;17.50;47.80;;;;;;5006033;28;20676;-66
2021/03/11 05:32:17;;;;;;;1.65;1.33;;;17.50;47.90;;;;;;5007926;28;20026;-62
2021/03/11 05:34:43;;;;;;;1.63;1.52;;;17.40;48.00;;;;;;5011121;28;20114;-62
2021/03/11 05:37:09;;;;;;;2.33;1.55;;;17.40;48.10;;;;;;5017653;28;20050;-60
2021/03/11 05:39:34;;;;;;;1.75;1.58;;;17.40;48.20;;;;;;5015757;28;20053;-60
2021/03/11 05:42:00;;;;;;;2.60;1.60;;;17.40;48.20;;;;;;5018449;28;20083;-61
2021/03/11 05:44:26;;;;;;;1.67;1.50;;;17.40;48.20;;;;;;5017471;28;20457;-60
2021/03/11 05:46:52;;;;;;;1.55;1.40;;;17.40;48.30;;;;;;5021718;28;20531;-60
2021/03/11 05:49:18;;;;;;;2.67;1.27;;;17.40;48.40;;;;;;5009238;28;20048;-59
2021/03/11 05:51:44;;;;;;;2.75;1.77;;;17.40;48.50;;;;;;5015703;28;20407;-59
2021/03/11 05:54:09;;;;;;;1.60;1.40;;;17.40;48.50;;;;;;5002075;28;20112;-60
2021/03/11 05:56:35;;;;;;;2.50;1.50;;;17.40;48.60;;;;;;5016022;28;20025;-58
2021/03/11 05:59:01;;;;;;;5.90;1.77;;;17.40;48.60;;;;;;5013822;28;20033;-60
2021/03/11 06:01:26;;;;;;;3.28;1.52;;;17.40;48.70;;;;;;5013204;28;20515;-60
2021/03/11 06:03:54;;;;;;;3.40;1.20;;;17.40;48.60;;;;;;5004239;28;20057;-61
2021/03/11 06:06:20;;;;;;;3.33;1.67;;;17.40;48.60;;;;;;5014239;28;20038;-60
2021/03/11 06:08:45;;;;;;;2.80;1.67;;;17.40;48.60;;;;;;5013595;28;20044;-59
2021/03/11 06:11:11;;;;;;;1.92;1.52;;;17.40;48.60;;;;;;5014292;28;20029;-57
2021/03/11 06:13:36;;;;;;;1.60;1.50;;;17.40;48.60;;;;;;5012242;28;20495;-60
2021/03/11 06:16:06;;;;;;;1.77;1.45;;;17.40;48.60;;;;;;5013127;28;20033;-60
2021/03/11 06:18:32;;;;;;;2.80;1.60;;;17.40;48.60;;;;;;5013686;28;20041;-59
2021/03/11 06:21:00;;;;;;;3.15;1.42;;;17.40;48.50;;;;;;5014539;28;20037;-61
2021/03/11 06:23:25;;;;;;;1.75;1.40;;;17.40;48.50;;;;;;5012139;28;20029;-58
2021/03/11 06:25:51;;;;;;;2.30;1.65;;;17.50;48.60;;;;;;5013907;28;20057;-57
2021/03/11 06:28:17;;;;;;;2.55;1.40;;;17.50;48.70;;;;;;5013174;28;20112;-60
2021/03/11 06:30:42;;;;;;;2.67;1.50;;;17.50;48.80;;;;;;5015217;28;20042;-58
2021/03/11 06:33:08;;;;;;;1.80;1.55;;;17.50;48.70;;;;;;5014712;28;20033;-58
2021/03/11 06:35:34;;;;;;;2.85;1.65;;;17.50;48.50;;;;;;5016391;28;20053;-62
2021/03/11 06:38:00;;;;;;;2.70;1.20;;;17.50;48.40;;;;;;5017827;28;20113;-60
2021/03/11 06:40:26;;;;;;;2.20;1.83;;;17.50;49.00;;;;;;5015123;28;20125;-60
2021/03/11 06:42:52;;;;;;;1.90;1.50;;;17.50;48.20;;;;;;5013861;28;20040;-62
2021/03/11 06:45:22;;;;;;;4.30;1.50;;;17.50;48.10;;;;;;5014429;28;20052;-61
2021/03/11 06:47:48;;;;;;;4.15;1.90;;;17.50;48.20;;;;;;5001897;28;20026;-61
2021/03/11 06:50:14;;;;;;;2.20;1.77;;;17.50;48.60;;;;;;5014601;28;20077;-64
2021/03/11 06:52:39;;;;;;;4.93;1.70;;;17.50;48.70;;;;;;5013680;28;20042;-58
2021/03/11 06:55:07;;;;;;;4.15;2.25;;;17.50;48.60;;;;;;5014790;28;20080;-59
2021/03/11 06:57:36;;;;;;;5.00;2.10;;;17.50;48.60;;;;;;5013330;28;20037;-59
2021/03/11 07:00:14;;;;;;;5.00;2.08;;;17.50;48.60;;;;;;5012444;28;20026;-62
2021/03/11 07:02:48;;;;;;;4.80;1.88;;;17.60;48.50;;;;;;5005310;28;20037;-59
2021/03/11 07:05:14;;;;;;;3.42;2.05;;;17.50;48.40;;;;;;5012544;28;20095;-57
2021/03/11 07:07:39;;;;;;;2.20;1.70;;;17.60;48.50;;;;;;5012634;28;20360;-61
2021/03/11 07:10:06;;;;;;;5.28;2.20;;;17.50;48.40;;;;;;5014185;28;20026;-62
2021/03/11 07:12:51;;;;;;;2.67;2.10;;;17.50;48.40;;;;;;5005570;28;20048;-59
2021/03/11 07:15:17;;;;;;;6.05;1.77;;;17.60;48.40;;;;;;5005668;28;20096;-62
2021/03/11 07:17:43;;;;;;;3.58;1.85;;;17.50;48.30;;;;;;5015826;28;20037;-62
2021/03/11 07:20:12;;;;;;;3.78;1.70;;;17.60;48.20;;;;;;5005272;28;20505;-61
2021/03/11 07:22:38;;;;;;;4.35;2.03;;;17.60;48.20;;;;;;4999436;28;20030;-58
2021/03/11 07:25:23;;;;;;;4.63;1.80;;;17.60;48.20;;;;;;4984890;28;20030;-63
2021/03/11 07:27:49;;;;;;;10.10;2.05;;;17.50;48.10;;;;;;4984243;28;20038;-60
2021/03/11 07:30:15;;;;;;;9.93;2.22;;;17.60;48.10;;;;;;4982834;28;20034;-61
2021/03/11 07:32:41;;;;;;;6.82;1.80;;;17.60;48.00;;;;;;4984820;28;20057;-58
2021/03/11 07:35:07;;;;;;;6.70;1.80;;;17.60;47.90;;;;;;4984008;28;20546;-61
2021/03/11 07:37:33;;;;;;;7.60;2.20;;;17.60;47.70;;;;;;4967407;28;20053;-61
2021/03/11 07:39:59;;;;;;;11.00;2.08;;;17.60;47.70;;;;;;4985493;28;20113;-58
2021/03/11 07:42:24;;;;;;;9.15;2.20;;;17.60;47.70;;;;;;4984314;28;20026;-59
2021/03/11 07:44:50;;;;;;;2.58;1.90;;;17.60;47.70;;;;;;4985756;28;20043;-60
2021/03/11 07:47:15;;;;;;;3.05;1.95;;;17.60;47.70;;;;;;4984708;28;20065;-60
2021/03/11 07:49:42;;;;;;;6.03;1.60;;;17.60;47.70;;;;;;4984008;28;20038;-58
2021/03/11 07:52:07;;;;;;;2.97;1.73;;;17.60;47.80;;;;;;4984183;28;20031;-60
2021/03/11 07:54:33;;;;;;;3.22;1.38;;;17.60;47.70;;;;;;4986676;28;20037;-61
2021/03/11 07:56:59;;;;;;;3.88;1.95;;;17.60;47.80;;;;;;4985484;28;20037;-59
2021/03/11 07:59:24;;;;;;;2.17;1.50;;;17.50;47.90;;;;;;4987134;28;20027;-59
2021/03/11 08:01:58;;;;;;;5.15;1.50;;;17.50;48.00;;;;;;4987015;28;20521;-56
2021/03/11 08:04:25;;;;;;;4.43;1.52;;;17.50;48.10;;;;;;4970963;28;20023;-60
2021/03/11 08:06:50;;;;;;;2.28;1.38;;;17.40;48.30;;;;;;4982907;28;20042;-59
2021/03/11 08:09:35;;;;;;;1.95;1.55;;;17.30;48.50;;;;;;4983763;28;20566;-57
2021/03/11 08:12:27;;;;;;;1.98;1.40;;;17.30;48.60;;;;;;4993452;28;20038;-57
2021/03/11 08:14:53;;;;;;;3.72;1.50;;;17.30;49.40;;;;;;4983033;28;20042;-60
2021/03/11 08:17:34;;;;;;;2.60;1.35;;;17.30;48.80;;;;;;4983791;28;20026;-59
2021/03/11 08:20:03;;;;;;;2.55;1.75;;;17.30;48.90;;;;;;4984456;28;20117;-60
2021/03/11 08:23:00;;;;;;;3.25;1.67;;;17.30;48.90;;;;;;4984481;28;20034;-60
2021/03/11 08:25:32;;;;;;;;;;;17.30;49.00;;;;;;4985526;28;20052;-59
2021/03/11 08:27:57;;;;;;;1.58;1.17;;;17.20;48.90;;;;;;4984267;28;19909;-56
2021/03/11 08:30:38;;;;;;;1.50;1.20;;;17.30;49.00;;;;;;4983742;28;20365;-58
2021/03/11 08:33:07;;;;;;;2.17;1.40;;;17.20;49.00;;;;;;4983692;28;20133;-60
2021/03/11 08:35:39;;;;;;;2.65;1.30;;;17.20;48.90;;;;;;4983978;28;21493;-60
2021/03/11 08:38:30;;;;;;;1.92;1.30;;;17.30;49.00;;;;;;4983927;28;20121;-61
2021/03/11 08:41:07;;;;;;;2.00;1.25;;;17.30;49.00;;;;;;4983593;28;20122;-60
2021/03/11 08:43:36;;;;;;;2.70;1.45;;;17.30;48.80;;;;;;4992364;28;20121;-61
2021/03/11 08:46:02;;;;;;;4.70;1.25;;;17.30;48.90;;;;;;4991338;28;20453;-60
2021/03/11 08:48:56;;;;;;;2.67;1.27;;;17.30;48.80;;;;;;4982910;28;20432;-60
2021/03/11 08:51:21;;;;;;;3.55;1.20;;;17.30;48.80;;;;;;4982387;28;20513;-60
2021/03/11 08:53:56;;;;;;;1.30;1.20;;;17.40;48.90;;;;;;4984407;28;20046;-57
2021/03/11 08:56:21;;;;;;;2.08;1.38;;;17.30;48.70;;;;;;4983637;28;20394;-58
2021/03/11 08:58:51;;;;;;;1.80;1.17;;;17.40;48.80;;;;;;4983964;28;20089;-61
2021/03/11 09:01:35;;;;;;;1.48;1.13;;;17.40;48.60;;;;;;4985962;28;20045;-61
2021/03/11 09:04:01;;;;;;;1.27;1.05;;;17.40;48.70;;;;;;4996783;28;20117;-62
2021/03/11 09:06:58;;;;;;;1.00;0.88;;;17.40;48.70;;;;;;4988111;28;20060;-60
2021/03/11 09:09:41;;;;;;;2.40;1.25;;;17.40;48.70;;;;;;4988317;28;20042;-60
2021/03/11 09:12:15;;;;;;;2.05;1.55;;;17.40;48.60;;;;;;4994502;28;20065;-60
2021/03/11 09:14:48;;;;;;;5.82;1.48;;;17.40;48.40;;;;;;4990245;28;20043;-57
2021/03/11 09:17:17;;;;;;;2.28;1.20;;;17.40;48.40;;;;;;4991385;28;20253;-61
2021/03/11 09:19:47;;;;;;;1.45;1.10;;;17.40;48.30;;;;;;4990848;28;20042;-60
2021/03/11 09:22:17;;;;;;;2.10;1.48;;;17.40;48.30;;;;;;4988126;28;20068;-61
2021/03/11 09:24:54;;;;;;;1.40;1.30;;;17.40;48.20;;;;;;4986968;28;20035;-61
2021/03/11 09:27:20;;;;;;;3.08;1.98;;;17.40;48.20;;;;;;4986816;28;20084;-60
2021/03/11 09:29:48;;;;;;;2.05;1.85;;;17.50;48.00;;;;;;4987559;28;20038;-59
2021/03/11 09:32:15;;;;;;;1.33;1.23;;;17.50;47.60;;;;;;4985269;28;20105;-61
2021/03/11 09:35:02;;;;;;;1.48;1.15;;;17.50;47.50;;;;;;4984215;28;20042;-59
2021/03/11 09:37:46;;;;;;;2.25;1.42;;;17.60;47.60;;;;;;4985711;28;20034;-59
2021/03/11 09:40:23;;;;;;;2.15;1.30;;;17.60;47.30;;;;;;4987465;28;20117;-61
2021/03/11 09:43:04;;;;;;;2.42;1.48;;;17.70;47.30;;;;;;4986348;28;20041;-59
2021/03/11 09:45:47;;;;;;;1.42;1.20;;;17.70;47.30;;;;;;4987845;28;20405;-60
2021/03/11 09:48:14;;;;;;;1.60;1.25;;;17.70;46.70;;;;;;4992303;28;20030;-59
2021/03/11 09:50:51;;;;;;;1.60;1.20;;;17.70;47.20;;;;;;4985858;28;20034;-61
2021/03/11 09:53:17;;;;;;;2.08;1.48;;;17.70;47.30;;;;;;4986842;28;20026;-60
2021/03/11 09:55:43;;;;;;;1.73;1.48;;;17.70;47.30;;;;;;4987157;28;20030;-61
2021/03/11 09:58:14;;;;;;;1.80;1.10;;;17.70;47.10;;;;;;4985242;28;20034;-60
2021/03/11 10:00:39;;;;;;;2.40;1.42;;;17.70;47.30;;;;;;4986431;28;20188;-61
2021/03/11 10:03:05;;;;;;;1.65;1.35;;;17.60;47.10;;;;;;4986931;28;20817;-57
2021/03/11 10:05:31;;;;;;;1.70;1.38;;;17.70;47.00;;;;;;4976917;28;20034;-56
2021/03/11 10:07:57;;;;;;;2.40;1.40;;;17.70;47.00;;;;;;4988627;28;20052;-61
2021/03/11 10:10:23;;;;;;;2.28;1.13;;;17.80;47.00;;;;;;4987248;28;20019;-61
2021/03/11 10:12:49;;;;;;;1.40;1.00;;;17.70;47.00;;;;;;4986379;28;20034;-61
2021/03/11 10:15:15;;;;;;;2.22;1.17;;;17.70;47.10;;;;;;4987451;28;20393;-61
2021/03/11 10:17:41;;;;;;;1.40;0.98;;;17.70;47.10;;;;;;4986485;28;20500;-59
2021/03/11 10:20:24;;;;;;;1.67;1.30;;;17.70;47.00;;;;;;4987732;28;20032;-62
2021/03/11 10:22:50;;;;;;;2.10;1.40;;;17.70;47.10;;;;;;4986596;28;20428;-62
2021/03/11 10:25:16;;;;;;;1.60;1.40;;;17.70;47.00;;;;;;4988513;28;20539;-61
2021/03/11 10:27:46;;;;;;;1.30;1.00;;;17.70;47.10;;;;;;4988808;28;20073;-63
2021/03/11 10:30:20;;;;;;;1.40;1.30;;;17.70;46.90;;;;;;4990844;28;20038;-57
2021/03/11 10:32:59;;;;;;;1.40;1.05;;;17.70;46.90;;;;;;4987075;28;20034;-62
2021/03/11 10:35:27;;;;;;;2.92;1.20;;;17.70;46.70;;;;;;4986334;28;20082;-61
2021/03/11 10:37:53;;;;;;;1.42;1.17;;;17.70;46.70;;;;;;4985698;28;20089;-58
2021/03/11 10:40:25;;;;;;;2.05;1.20;;;17.70;46.90;;;;;;4984933;28;20058;-62
2021/03/11 10:42:55;;;;;;;1.48;1.15;;;17.70;46.90;;;;;;4985860;28;20569;-60
2021/03/11 10:45:26;;;;;;;1.85;1.40;;;17.70;46.90;;;;;;4986715;28;20118;-62
2021/03/11 10:48:06;;;;;;;2.15;1.05;;;17.70;46.90;;;;;;4983630;28;20042;-60
2021/03/11 10:50:48;;;;;;;2.13;1.00;;;17.60;46.90;;;;;;4994323;28;20034;-61
2021/03/11 10:53:13;;;;;;;1.27;1.15;;;17.60;46.90;;;;;;4991779;28;20683;-60
2021/03/11 10:55:43;;;;;;;3.15;1.50;;;17.60;46.70;;;;;;4986287;28;20065;-61
2021/03/11 10:58:25;;;;;;;2.25;1.30;;;17.60;46.90;;;;;;4983664;28;20084;-62
2021/03/11 11:00:51;;;;;;;1.45;1.00;;;17.60;47.20;;;;;;4986347;28;20027;-61
2021/03/11 11:03:20;;;;;;;1.30;1.20;;;17.50;47.10;;;;;;4984238;28;20057;-62
2021/03/11 11:05:45;;;;;;;1.58;1.30;;;17.50;47.10;;;;;;4986254;28;20113;-57
2021/03/11 11:08:11;;;;;;;1.02;0.90;;;17.50;47.40;;;;;;4985008;28;20125;-61
2021/03/11 11:10:37;;;;;;;1.45;1.20;;;17.50;47.50;;;;;;4986143;28;20037;-57
2021/03/11 11:13:02;;;;;;;1.10;1.00;;;17.50;47.40;;;;;;4985230;28;20092;-60
2021/03/11 11:15:31;;;;;;;1.80;1.30;;;17.50;47.50;;;;;;4986372;28;20049;-61
2021/03/11 11:17:56;;;;;;;1.33;0.90;;;17.40;48.10;;;;;;4985209;28;20018;-61
2021/03/11 11:20:22;;;;;;;2.03;1.27;;;17.40;47.70;;;;;;4985821;28;20455;-54
2021/03/11 11:22:47;;;;;;;2.13;1.20;;;17.40;47.70;;;;;;4985158;28;20026;-62
2021/03/11 11:25:13;;;;;;;1.92;1.25;;;17.40;47.80;;;;;;4985216;28;20069;-57
2021/03/11 11:27:38;;;;;;;1.13;1.02;;;17.40;47.80;;;;;;4984977;28;20489;-58
2021/03/11 11:30:05;;;;;;;1.85;1.10;;;17.40;47.80;;;;;;4986744;28;20022;-56
2021/03/11 11:32:31;;;;;;;2.08;1.33;;;17.40;47.90;;;;;;4983947;28;20731;-59
2021/03/11 11:34:56;;;;;;;1.23;0.98;;;17.40;47.90;;;;;;4985732;28;20146;-58
2021/03/11 11:37:22;;;;;;;1.13;1.00;;;17.50;47.80;;;;;;4984690;28;20038;-61
2021/03/11 11:39:49;;;;;;;1.45;1.13;;;17.60;47.70;;;;;;4984509;28;20106;-61
2021/03/11 11:42:15;;;;;;;2.90;1.30;;;17.60;47.50;;;;;;4993906;28;20038;-60
2021/03/11 11:44:40;;;;;;;2.72;1.67;;;17.60;47.60;;;;;;4996927;28;20122;-60
2021/03/11 11:47:06;;;;;;;8.93;2.22;;;17.70;47.70;;;;;;4989551;28;20046;-59
2021/03/11 11:49:32;;;;;;;7.20;2.60;;;17.70;47.60;;;;;;4985575;28;20027;-61
2021/03/11 11:51:57;;;;;;;10.13;2.17;;;17.70;47.70;;;;;;4988341;28;20038;-61
2021/03/11 11:54:23;;;;;;;13.70;2.70;;;17.70;47.70;;;;;;4989336;28;20030;-61
2021/03/11 11:56:49;;;;;;;17.25;3.67;;;17.70;47.70;;;;;;4991669;28;20359;-61
2021/03/11 11:59:14;;;;;;;10.95;2.67;;;17.70;47.50;;;;;;4991938;28;20547;-60
2021/03/11 12:01:40;;;;;;;21.75;3.50;;;17.70;47.60;;;;;;4985157;28;20559;-60
2021/03/11 12:04:05;;;;;;;16.23;3.30;;;17.70;47.60;;;;;;4985367;28;20037;-60
2021/03/11 12:06:31;;;;;;;18.23;3.83;;;17.70;47.50;;;;;;4983744;28;20034;-60
2021/03/11 12:08:56;;;;;;;18.58;3.40;;;17.70;47.50;;;;;;4984497;28;20022;-60
2021/03/11 12:11:22;;;;;;;15.02;3.30;;;17.80;47.50;;;;;;4985357;28;20082;-59
2021/03/11 12:13:47;;;;;;;21.38;4.43;;;17.70;47.50;;;;;;4985324;28;20042;-61
2021/03/11 12:16:13;;;;;;;33.72;4.95;;;17.70;47.50;;;;;;4985159;28;20037;-61
2021/03/11 12:18:38;;;;;;;45.60;5.75;;;17.70;47.60;;;;;;4985391;28;20065;-61
2021/03/11 12:21:04;;;;;;;45.22;5.57;;;17.80;47.60;;;;;;4985258;28;20557;-60
2021/03/11 12:23:30;;;;;;;52.42;6.40;;;17.80;47.60;;;;;;4984557;28;20022;-61
2021/03/11 12:25:57;;;;;;;36.10;7.03;;;17.80;47.50;;;;;;4985351;28;20030;-59
2021/03/11 12:28:23;;;;;;;52.17;6.38;;;17.80;47.40;;;;;;4984491;28;20114;-61
2021/03/11 12:30:49;;;;;;;46.50;7.22;;;17.80;47.40;;;;;;4985039;28;20150;-61
2021/03/11 12:33:14;;;;;;;26.35;5.10;;;17.80;47.50;;;;;;4984747;28;20492;-60
2021/03/11 12:35:40;;;;;;;38.22;6.00;;;17.80;47.50;;;;;;4985683;28;20031;-60
2021/03/11 12:38:05;;;;;;;36.28;5.05;;;17.80;47.50;;;;;;4983473;28;20038;-60
2021/03/11 12:40:31;;;;;;;30.20;4.72;;;17.80;47.40;;;;;;4984889;28;20034;-60
2021/03/11 12:42:56;;;;;;;19.40;4.47;;;17.80;47.50;;;;;;4985327;28;20019;-61
2021/03/11 12:45:22;;;;;;;25.45;4.40;;;17.80;47.60;;;;;;4985813;28;20500;-60
2021/03/11 12:47:48;;;;;;;17.45;4.00;;;17.80;47.50;;;;;;4985325;28;20050;-60
2021/03/11 12:50:14;;;;;;;22.15;4.53;;;17.90;47.60;;;;;;4987099;28;20038;-61